sensor_id;sensor_type;location;lat;lon;timestamp;P1;durP1;ratioP1;P2;durP2;ratioP2
16450;SDS011;12243;42.708;23.310;2023-06-22T00:02:02;10.52;;;9.63;;
16450;SDS011;12243;42.708;23.310;2023-06-22T00:04:29;10.45;;;9.43;;
16450;SDS011;12243;42.708;23.310;2023-06-22T00:06:55;9.57;;;8.68;;
16450;SDS011;12243;42.708;23.310;2023-06-22T00:09:22;10.57;;;9.65;;
16450;SDS011;12243;42.708;23.310;2023-06-22T00:11:49;10.27;;;8.65;;
16450;SDS011;12243;42.708;23.310;2023-06-22T00:14:16;9.77;;;8.73;;
16450;SDS011;12243;42.708;23.310;2023-06-22T00:16:44;10.40;;;9.50;;
16450;SDS011;12243;42.708;23.310;2023-06-22T00:19:15;10.80;;;9.70;;
16450;SDS011;12243;42.708;23.310;2023-06-22T00:21:42;9.68;;;8.77;;
16450;SDS011;12243;42.708;23.310;2023-06-22T00:24:12;10.18;;;9.38;;
16450;SDS011;12243;42.708;23.310;2023-06-22T00:26:39;10.20;;;9.30;;
16450;SDS011;12243;42.708;23.310;2023-06-22T00:29:08;10.45;;;9.55;;
16450;SDS011;12243;42.708;23.310;2023-06-22T00:31:35;10.32;;;9.40;;
16450;SDS011;12243;42.708;23.310;2023-06-22T00:34:02;10.00;;;9.10;;
16450;SDS011;12243;42.708;23.310;2023-06-22T00:36:30;10.20;;;9.20;;
16450;SDS011;12243;42.708;23.310;2023-06-22T00:38:57;9.40;;;8.65;;
16450;SDS011;12243;42.708;23.310;2023-06-22T00:41:24;9.25;;;8.45;;
16450;SDS011;12243;42.708;23.310;2023-06-22T00:43:53;8.55;;;7.85;;
16450;SDS011;12243;42.708;23.310;2023-06-22T00:46:20;8.70;;;8.00;;
16450;SDS011;12243;42.708;23.310;2023-06-22T00:48:48;8.60;;;8.00;;
16450;SDS011;12243;42.708;23.310;2023-06-22T00:51:15;9.20;;;8.40;;
16450;SDS011;12243;42.708;23.310;2023-06-22T00:53:44;10.30;;;9.10;;
16450;SDS011;12243;42.708;23.310;2023-06-22T00:56:11;9.85;;;8.40;;
16450;SDS011;12243;42.708;23.310;2023-06-22T00:58:39;9.00;;;8.10;;
16450;SDS011;12243;42.708;23.310;2023-06-22T01:01:06;9.95;;;9.00;;
16450;SDS011;12243;42.708;23.310;2023-06-22T01:03:34;8.82;;;8.05;;
16450;SDS011;12243;42.708;23.310;2023-06-22T01:06:06;9.57;;;8.65;;
16450;SDS011;12243;42.708;23.310;2023-06-22T01:08:38;9.45;;;8.48;;
16450;SDS011;12243;42.708;23.310;2023-06-22T01:11:16;9.27;;;8.48;;
16450;SDS011;12243;42.708;23.310;2023-06-22T01:13:50;8.48;;;7.78;;
16450;SDS011;12243;42.708;23.310;2023-06-22T01:16:26;8.90;;;8.10;;
16450;SDS011;12243;42.708;23.310;2023-06-22T01:18:55;9.00;;;8.30;;
16450;SDS011;12243;42.708;23.310;2023-06-22T01:21:28;8.48;;;7.78;;
16450;SDS011;12243;42.708;23.310;2023-06-22T01:24:02;9.45;;;8.55;;
16450;SDS011;12243;42.708;23.310;2023-06-22T01:26:41;8.63;;;7.93;;
16450;SDS011;12243;42.708;23.310;2023-06-22T01:29:13;9.35;;;8.32;;
16450;SDS011;12243;42.708;23.310;2023-06-22T01:31:42;8.65;;;7.95;;
16450;SDS011;12243;42.708;23.310;2023-06-22T01:34:11;9.68;;;8.35;;
16450;SDS011;12243;42.708;23.310;2023-06-22T01:36:40;8.45;;;7.65;;
16450;SDS011;12243;42.708;23.310;2023-06-22T01:39:07;8.88;;;8.07;;
16450;SDS011;12243;42.708;23.310;2023-06-22T01:41:35;10.20;;;9.15;;
16450;SDS011;12243;42.708;23.310;2023-06-22T01:44:04;9.40;;;8.50;;
16450;SDS011;12243;42.708;23.310;2023-06-22T01:46:33;9.82;;;8.93;;
16450;SDS011;12243;42.708;23.310;2023-06-22T01:49:01;9.45;;;8.63;;
16450;SDS011;12243;42.708;23.310;2023-06-22T01:51:29;9.23;;;8.38;;
16450;SDS011;12243;42.708;23.310;2023-06-22T01:53:59;9.13;;;8.30;;
16450;SDS011;12243;42.708;23.310;2023-06-22T01:56:26;8.68;;;7.97;;
16450;SDS011;12243;42.708;23.310;2023-06-22T01:58:55;10.18;;;8.73;;
16450;SDS011;12243;42.708;23.310;2023-06-22T02:01:27;10.45;;;8.30;;
16450;SDS011;12243;42.708;23.310;2023-06-22T02:04:04;8.88;;;8.13;;
16450;SDS011;12243;42.708;23.310;2023-06-22T02:06:41;8.77;;;7.72;;
16450;SDS011;12243;42.708;23.310;2023-06-22T02:09:12;8.35;;;7.60;;
16450;SDS011;12243;42.708;23.310;2023-06-22T02:11:43;8.38;;;7.63;;
16450;SDS011;12243;42.708;23.310;2023-06-22T02:14:13;8.43;;;7.50;;
16450;SDS011;12243;42.708;23.310;2023-06-22T02:16:41;8.73;;;7.95;;
16450;SDS011;12243;42.708;23.310;2023-06-22T02:19:10;9.27;;;8.48;;
16450;SDS011;12243;42.708;23.310;2023-06-22T02:21:37;8.73;;;7.82;;
16450;SDS011;12243;42.708;23.310;2023-06-22T02:24:04;9.18;;;8.38;;
16450;SDS011;12243;42.708;23.310;2023-06-22T02:26:31;8.60;;;7.70;;
16450;SDS011;12243;42.708;23.310;2023-06-22T02:29:01;8.40;;;7.68;;
16450;SDS011;12243;42.708;23.310;2023-06-22T02:31:28;8.75;;;7.93;;
16450;SDS011;12243;42.708;23.310;2023-06-22T02:33:55;8.52;;;7.72;;
16450;SDS011;12243;42.708;23.310;2023-06-22T02:36:25;9.98;;;8.52;;
16450;SDS011;12243;42.708;23.310;2023-06-22T02:38:55;8.80;;;8.10;;
16450;SDS011;12243;42.708;23.310;2023-06-22T02:41:26;8.45;;;7.75;;
16450;SDS011;12243;42.708;23.310;2023-06-22T02:43:55;9.40;;;8.60;;
16450;SDS011;12243;42.708;23.310;2023-06-22T02:46:22;9.43;;;8.35;;
16450;SDS011;12243;42.708;23.310;2023-06-22T02:48:49;9.55;;;8.65;;
16450;SDS011;12243;42.708;23.310;2023-06-22T02:51:16;9.25;;;8.35;;
16450;SDS011;12243;42.708;23.310;2023-06-22T02:53:44;11.57;;;9.02;;
16450;SDS011;12243;42.708;23.310;2023-06-22T02:56:13;8.93;;;8.15;;
16450;SDS011;12243;42.708;23.310;2023-06-22T02:58:41;10.25;;;9.25;;
16450;SDS011;12243;42.708;23.310;2023-06-22T03:01:10;9.45;;;8.55;;
16450;SDS011;12243;42.708;23.310;2023-06-22T03:03:39;10.52;;;9.35;;
16450;SDS011;12243;42.708;23.310;2023-06-22T03:06:09;9.68;;;8.27;;
16450;SDS011;12243;42.708;23.310;2023-06-22T03:08:39;11.55;;;9.50;;
16450;SDS011;12243;42.708;23.310;2023-06-22T03:11:08;10.05;;;9.15;;
16450;SDS011;12243;42.708;23.310;2023-06-22T03:13:35;9.43;;;8.57;;
16450;SDS011;12243;42.708;23.310;2023-06-22T03:16:03;9.80;;;8.77;;
16450;SDS011;12243;42.708;23.310;2023-06-22T03:18:30;10.07;;;9.18;;
16450;SDS011;12243;42.708;23.310;2023-06-22T03:20:57;9.63;;;8.63;;
16450;SDS011;12243;42.708;23.310;2023-06-22T03:23:25;8.70;;;8.00;;
16450;SDS011;12243;42.708;23.310;2023-06-22T03:25:52;9.30;;;8.38;;
16450;SDS011;12243;42.708;23.310;2023-06-22T03:28:22;9.75;;;8.75;;
16450;SDS011;12243;42.708;23.310;2023-06-22T03:30:49;9.70;;;8.52;;
16450;SDS011;12243;42.708;23.310;2023-06-22T03:33:16;9.43;;;8.63;;
16450;SDS011;12243;42.708;23.310;2023-06-22T03:35:43;11.68;;;8.10;;
16450;SDS011;12243;42.708;23.310;2023-06-22T03:38:10;9.63;;;8.82;;
16450;SDS011;12243;42.708;23.310;2023-06-22T03:40:37;10.07;;;9.13;;
16450;SDS011;12243;42.708;23.310;2023-06-22T03:43:04;8.82;;;8.02;;
16450;SDS011;12243;42.708;23.310;2023-06-22T03:45:32;8.98;;;8.18;;
16450;SDS011;12243;42.708;23.310;2023-06-22T03:48:00;11.02;;;8.63;;
16450;SDS011;12243;42.708;23.310;2023-06-22T03:50:27;8.45;;;7.75;;
16450;SDS011;12243;42.708;23.310;2023-06-22T03:52:55;9.23;;;8.32;;
16450;SDS011;12243;42.708;23.310;2023-06-22T03:55:22;8.35;;;7.65;;
16450;SDS011;12243;42.708;23.310;2023-06-22T03:57:49;9.02;;;8.23;;
16450;SDS011;12243;42.708;23.310;2023-06-22T04:00:16;8.85;;;7.95;;
16450;SDS011;12243;42.708;23.310;2023-06-22T04:02:44;9.02;;;7.47;;
16450;SDS011;12243;42.708;23.310;2023-06-22T04:05:11;8.32;;;7.63;;
16450;SDS011;12243;42.708;23.310;2023-06-22T04:07:38;8.77;;;7.88;;
16450;SDS011;12243;42.708;23.310;2023-06-22T04:10:06;9.80;;;8.10;;
16450;SDS011;12243;42.708;23.310;2023-06-22T04:12:33;8.60;;;7.90;;
16450;SDS011;12243;42.708;23.310;2023-06-22T04:15:00;8.40;;;7.63;;
16450;SDS011;12243;42.708;23.310;2023-06-22T04:17:27;9.00;;;8.10;;
16450;SDS011;12243;42.708;23.310;2023-06-22T04:19:55;8.57;;;7.72;;
16450;SDS011;12243;42.708;23.310;2023-06-22T04:22:22;8.88;;;7.97;;
16450;SDS011;12243;42.708;23.310;2023-06-22T04:24:50;11.18;;;8.35;;
16450;SDS011;12243;42.708;23.310;2023-06-22T04:27:19;10.25;;;8.45;;
16450;SDS011;12243;42.708;23.310;2023-06-22T04:29:48;9.88;;;9.07;;
16450;SDS011;12243;42.708;23.310;2023-06-22T04:32:16;8.85;;;7.97;;
16450;SDS011;12243;42.708;23.310;2023-06-22T04:34:43;10.30;;;8.55;;
16450;SDS011;12243;42.708;23.310;2023-06-22T04:37:12;10.60;;;9.40;;
16450;SDS011;12243;42.708;23.310;2023-06-22T04:39:40;9.80;;;8.90;;
16450;SDS011;12243;42.708;23.310;2023-06-22T04:42:08;12.63;;;9.35;;
16450;SDS011;12243;42.708;23.310;2023-06-22T04:44:35;9.73;;;8.73;;
16450;SDS011;12243;42.708;23.310;2023-06-22T04:47:02;9.88;;;9.00;;
16450;SDS011;12243;42.708;23.310;2023-06-22T04:49:33;8.85;;;8.05;;
16450;SDS011;12243;42.708;23.310;2023-06-22T04:52:02;9.23;;;8.43;;
16450;SDS011;12243;42.708;23.310;2023-06-22T04:54:32;9.68;;;8.88;;
16450;SDS011;12243;42.708;23.310;2023-06-22T04:56:59;9.70;;;8.80;;
16450;SDS011;12243;42.708;23.310;2023-06-22T04:59:27;10.35;;;9.45;;
16450;SDS011;12243;42.708;23.310;2023-06-22T05:01:55;10.45;;;9.27;;
16450;SDS011;12243;42.708;23.310;2023-06-22T05:04:23;10.35;;;8.48;;
16450;SDS011;12243;42.708;23.310;2023-06-22T05:06:50;9.55;;;8.68;;
16450;SDS011;12243;42.708;23.310;2023-06-22T05:09:17;10.70;;;9.77;;
16450;SDS011;12243;42.708;23.310;2023-06-22T05:11:46;10.70;;;9.02;;
16450;SDS011;12243;42.708;23.310;2023-06-22T05:14:13;9.75;;;8.95;;
16450;SDS011;12243;42.708;23.310;2023-06-22T05:16:41;9.23;;;8.43;;
16450;SDS011;12243;42.708;23.310;2023-06-22T05:19:08;10.63;;;8.63;;
16450;SDS011;12243;42.708;23.310;2023-06-22T05:21:35;10.10;;;8.55;;
16450;SDS011;12243;42.708;23.310;2023-06-22T05:24:02;10.18;;;9.13;;
16450;SDS011;12243;42.708;23.310;2023-06-22T05:26:30;9.02;;;8.10;;
16450;SDS011;12243;42.708;23.310;2023-06-22T05:29:00;9.40;;;8.60;;
16450;SDS011;12243;42.708;23.310;2023-06-22T05:31:28;10.82;;;9.38;;
16450;SDS011;12243;42.708;23.310;2023-06-22T05:33:55;9.52;;;8.63;;
16450;SDS011;12243;42.708;23.310;2023-06-22T05:36:25;9.20;;;8.38;;
16450;SDS011;12243;42.708;23.310;2023-06-22T05:38:52;10.15;;;9.23;;
16450;SDS011;12243;42.708;23.310;2023-06-22T05:41:19;9.20;;;8.50;;
16450;SDS011;12243;42.708;23.310;2023-06-22T05:43:46;10.95;;;9.50;;
16450;SDS011;12243;42.708;23.310;2023-06-22T05:46:15;9.85;;;8.90;;
16450;SDS011;12243;42.708;23.310;2023-06-22T05:48:42;10.57;;;9.68;;
16450;SDS011;12243;42.708;23.310;2023-06-22T05:51:09;11.02;;;10.13;;
16450;SDS011;12243;42.708;23.310;2023-06-22T05:53:36;8.48;;;7.80;;
16450;SDS011;12243;42.708;23.310;2023-06-22T05:56:03;8.48;;;7.82;;
16450;SDS011;12243;42.708;23.310;2023-06-22T05:58:31;8.23;;;7.53;;
16450;SDS011;12243;42.708;23.310;2023-06-22T06:00:58;7.72;;;7.00;;
16450;SDS011;12243;42.708;23.310;2023-06-22T06:03:27;7.65;;;7.05;;
16450;SDS011;12243;42.708;23.310;2023-06-22T06:05:54;8.60;;;7.78;;
16450;SDS011;12243;42.708;23.310;2023-06-22T06:08:21;8.70;;;7.88;;
16450;SDS011;12243;42.708;23.310;2023-06-22T06:10:49;8.70;;;7.85;;
16450;SDS011;12243;42.708;23.310;2023-06-22T06:13:18;11.95;;;8.65;;
16450;SDS011;12243;42.708;23.310;2023-06-22T06:15:47;8.75;;;7.90;;
16450;SDS011;12243;42.708;23.310;2023-06-22T06:18:17;9.27;;;8.32;;
16450;SDS011;12243;42.708;23.310;2023-06-22T06:20:45;9.15;;;8.30;;
16450;SDS011;12243;42.708;23.310;2023-06-22T06:23:12;9.80;;;8.90;;
16450;SDS011;12243;42.708;23.310;2023-06-22T06:25:40;9.70;;;8.82;;
16450;SDS011;12243;42.708;23.310;2023-06-22T06:28:07;9.48;;;8.82;;
16450;SDS011;12243;42.708;23.310;2023-06-22T06:30:34;10.52;;;9.23;;
16450;SDS011;12243;42.708;23.310;2023-06-22T06:33:02;9.43;;;8.63;;
16450;SDS011;12243;42.708;23.310;2023-06-22T06:35:30;10.90;;;9.90;;
16450;SDS011;12243;42.708;23.310;2023-06-22T06:37:58;10.50;;;9.52;;
16450;SDS011;12243;42.708;23.310;2023-06-22T06:40:25;10.07;;;9.00;;
16450;SDS011;12243;42.708;23.310;2023-06-22T06:42:52;9.85;;;9.05;;
16450;SDS011;12243;42.708;23.310;2023-06-22T06:45:19;10.30;;;9.40;;
16450;SDS011;12243;42.708;23.310;2023-06-22T06:47:48;10.98;;;9.95;;
16450;SDS011;12243;42.708;23.310;2023-06-22T06:50:16;11.23;;;8.95;;
16450;SDS011;12243;42.708;23.310;2023-06-22T06:52:43;9.40;;;8.70;;
16450;SDS011;12243;42.708;23.310;2023-06-22T06:55:11;9.65;;;8.85;;
16450;SDS011;12243;42.708;23.310;2023-06-22T06:57:39;10.63;;;9.73;;
16450;SDS011;12243;42.708;23.310;2023-06-22T07:00:07;10.75;;;9.65;;
16450;SDS011;12243;42.708;23.310;2023-06-22T07:02:37;9.90;;;8.90;;
16450;SDS011;12243;42.708;23.310;2023-06-22T07:05:05;11.07;;;10.18;;
16450;SDS011;12243;42.708;23.310;2023-06-22T07:07:33;10.75;;;9.80;;
16450;SDS011;12243;42.708;23.310;2023-06-22T07:10:00;9.77;;;8.85;;
16450;SDS011;12243;42.708;23.310;2023-06-22T07:12:29;12.20;;;10.98;;
16450;SDS011;12243;42.708;23.310;2023-06-22T07:15:01;12.25;;;10.02;;
16450;SDS011;12243;42.708;23.310;2023-06-22T07:17:29;10.40;;;9.30;;
16450;SDS011;12243;42.708;23.310;2023-06-22T07:19:56;10.40;;;9.35;;
16450;SDS011;12243;42.708;23.310;2023-06-22T07:22:23;10.80;;;9.80;;
16450;SDS011;12243;42.708;23.310;2023-06-22T07:24:50;10.00;;;8.73;;
16450;SDS011;12243;42.708;23.310;2023-06-22T07:27:16;13.23;;;9.80;;
16450;SDS011;12243;42.708;23.310;2023-06-22T07:29:46;11.60;;;9.68;;
16450;SDS011;12243;42.708;23.310;2023-06-22T07:32:13;10.57;;;9.27;;
16450;SDS011;12243;42.708;23.310;2023-06-22T07:34:40;9.63;;;8.65;;
16450;SDS011;12243;42.708;23.310;2023-06-22T07:37:08;10.65;;;9.63;;
16450;SDS011;12243;42.708;23.310;2023-06-22T07:39:35;13.45;;;10.85;;
16450;SDS011;12243;42.708;23.310;2023-06-22T07:42:03;10.77;;;9.77;;
16450;SDS011;12243;42.708;23.310;2023-06-22T07:44:30;11.13;;;9.77;;
16450;SDS011;12243;42.708;23.310;2023-06-22T07:46:59;10.52;;;9.52;;
16450;SDS011;12243;42.708;23.310;2023-06-22T07:49:27;11.25;;;9.95;;
16450;SDS011;12243;42.708;23.310;2023-06-22T07:51:54;10.43;;;9.43;;
16450;SDS011;12243;42.708;23.310;2023-06-22T07:54:21;10.55;;;9.55;;
16450;SDS011;12243;42.708;23.310;2023-06-22T07:56:48;10.48;;;9.40;;
16450;SDS011;12243;42.708;23.310;2023-06-22T07:59:15;9.80;;;8.90;;
16450;SDS011;12243;42.708;23.310;2023-06-22T08:01:42;10.15;;;9.35;;
16450;SDS011;12243;42.708;23.310;2023-06-22T08:04:10;10.50;;;9.40;;
16450;SDS011;12243;42.708;23.310;2023-06-22T08:06:37;10.82;;;9.82;;
16450;SDS011;12243;42.708;23.310;2023-06-22T08:09:04;10.75;;;9.80;;
16450;SDS011;12243;42.708;23.310;2023-06-22T08:11:31;10.07;;;8.90;;
16450;SDS011;12243;42.708;23.310;2023-06-22T08:13:59;10.85;;;9.02;;
16450;SDS011;12243;42.708;23.310;2023-06-22T08:16:26;10.40;;;9.38;;
16450;SDS011;12243;42.708;23.310;2023-06-22T08:18:52;10.52;;;9.43;;
16450;SDS011;12243;42.708;23.310;2023-06-22T08:21:21;9.98;;;9.05;;
16450;SDS011;12243;42.708;23.310;2023-06-22T08:23:48;10.73;;;8.82;;
16450;SDS011;12243;42.708;23.310;2023-06-22T08:26:15;11.32;;;9.73;;
16450;SDS011;12243;42.708;23.310;2023-06-22T08:28:42;10.18;;;9.13;;
16450;SDS011;12243;42.708;23.310;2023-06-22T08:31:09;9.45;;;8.73;;
16450;SDS011;12243;42.708;23.310;2023-06-22T08:33:37;9.48;;;8.77;;
16450;SDS011;12243;42.708;23.310;2023-06-22T08:36:04;9.02;;;8.32;;
16450;SDS011;12243;42.708;23.310;2023-06-22T08:38:34;9.93;;;8.98;;
16450;SDS011;12243;42.708;23.310;2023-06-22T08:41:01;9.20;;;8.50;;
16450;SDS011;12243;42.708;23.310;2023-06-22T08:43:28;10.05;;;8.98;;
16450;SDS011;12243;42.708;23.310;2023-06-22T08:45:55;9.45;;;8.55;;
16450;SDS011;12243;42.708;23.310;2023-06-22T08:48:22;9.82;;;8.98;;
16450;SDS011;12243;42.708;23.310;2023-06-22T08:50:49;8.30;;;7.57;;
16450;SDS011;12243;42.708;23.310;2023-06-22T08:53:16;7.75;;;7.10;;
16450;SDS011;12243;42.708;23.310;2023-06-22T08:55:44;8.93;;;8.05;;
16450;SDS011;12243;42.708;23.310;2023-06-22T08:58:11;10.93;;;9.85;;
16450;SDS011;12243;42.708;23.310;2023-06-22T09:00:38;9.75;;;9.05;;
16450;SDS011;12243;42.708;23.310;2023-06-22T09:03:05;8.88;;;8.13;;
16450;SDS011;12243;42.708;23.310;2023-06-22T09:05:33;8.25;;;7.65;;
16450;SDS011;12243;42.708;23.310;2023-06-22T09:08:00;8.23;;;7.40;;
16450;SDS011;12243;42.708;23.310;2023-06-22T09:10:27;8.15;;;7.55;;
16450;SDS011;12243;42.708;23.310;2023-06-22T09:12:56;8.48;;;7.75;;
16450;SDS011;12243;42.708;23.310;2023-06-22T09:15:24;8.32;;;7.72;;
16450;SDS011;12243;42.708;23.310;2023-06-22T09:17:53;8.18;;;7.55;;
16450;SDS011;12243;42.708;23.310;2023-06-22T09:20:21;7.63;;;7.03;;
16450;SDS011;12243;42.708;23.310;2023-06-22T09:22:48;9.13;;;8.38;;
16450;SDS011;12243;42.708;23.310;2023-06-22T09:25:15;7.88;;;7.38;;
16450;SDS011;12243;42.708;23.310;2023-06-22T09:27:42;8.32;;;7.70;;
16450;SDS011;12243;42.708;23.310;2023-06-22T09:30:11;8.52;;;8.02;;
16450;SDS011;12243;42.708;23.310;2023-06-22T09:32:38;9.38;;;8.68;;
16450;SDS011;12243;42.708;23.310;2023-06-22T09:35:05;9.55;;;8.75;;
16450;SDS011;12243;42.708;23.310;2023-06-22T09:37:33;8.60;;;7.90;;
16450;SDS011;12243;42.708;23.310;2023-06-22T09:40:01;9.05;;;8.20;;
16450;SDS011;12243;42.708;23.310;2023-06-22T09:42:33;9.10;;;8.30;;
16450;SDS011;12243;42.708;23.310;2023-06-22T09:45:00;8.85;;;8.25;;
16450;SDS011;12243;42.708;23.310;2023-06-22T09:47:29;7.82;;;7.40;;
16450;SDS011;12243;42.708;23.310;2023-06-22T09:49:56;8.27;;;7.75;;
16450;SDS011;12243;42.708;23.310;2023-06-22T09:52:25;8.98;;;8.25;;
16450;SDS011;12243;42.708;23.310;2023-06-22T09:54:52;8.80;;;8.20;;
16450;SDS011;12243;42.708;23.310;2023-06-22T09:57:18;9.63;;;8.82;;
16450;SDS011;12243;42.708;23.310;2023-06-22T09:59:45;10.98;;;9.95;;
16450;SDS011;12243;42.708;23.310;2023-06-22T10:02:12;8.52;;;7.93;;
16450;SDS011;12243;42.708;23.310;2023-06-22T10:04:41;9.10;;;8.10;;
16450;SDS011;12243;42.708;23.310;2023-06-22T10:07:07;8.63;;;7.72;;
16450;SDS011;12243;42.708;23.310;2023-06-22T10:09:34;9.27;;;8.57;;
16450;SDS011;12243;42.708;23.310;2023-06-22T10:12:01;9.10;;;8.50;;
16450;SDS011;12243;42.708;23.310;2023-06-22T10:14:28;9.32;;;8.63;;
16450;SDS011;12243;42.708;23.310;2023-06-22T10:16:55;9.27;;;8.60;;
16450;SDS011;12243;42.708;23.310;2023-06-22T10:19:22;9.25;;;8.55;;
16450;SDS011;12243;42.708;23.310;2023-06-22T10:21:50;9.10;;;8.50;;
16450;SDS011;12243;42.708;23.310;2023-06-22T10:24:17;9.27;;;8.60;;
16450;SDS011;12243;42.708;23.310;2023-06-22T10:26:44;8.95;;;8.35;;
16450;SDS011;12243;42.708;23.310;2023-06-22T10:29:11;8.85;;;8.20;;
16450;SDS011;12243;42.708;23.310;2023-06-22T10:31:38;9.32;;;8.65;;
16450;SDS011;12243;42.708;23.310;2023-06-22T10:34:05;8.45;;;7.95;;
16450;SDS011;12243;42.708;23.310;2023-06-22T10:36:32;9.13;;;8.52;;
16450;SDS011;12243;42.708;23.310;2023-06-22T10:39:00;8.45;;;7.78;;
16450;SDS011;12243;42.708;23.310;2023-06-22T10:41:28;8.55;;;7.85;;
16450;SDS011;12243;42.708;23.310;2023-06-22T10:43:56;9.00;;;8.38;;
16450;SDS011;12243;42.708;23.310;2023-06-22T10:46:23;9.38;;;8.50;;
16450;SDS011;12243;42.708;23.310;2023-06-22T10:48:50;8.88;;;8.18;;
16450;SDS011;12243;42.708;23.310;2023-06-22T10:51:20;8.57;;;8.07;;
16450;SDS011;12243;42.708;23.310;2023-06-22T10:53:47;9.07;;;8.23;;
16450;SDS011;12243;42.708;23.310;2023-06-22T10:56:15;8.25;;;7.63;;
16450;SDS011;12243;42.708;23.310;2023-06-22T10:58:42;9.15;;;8.43;;
16450;SDS011;12243;42.708;23.310;2023-06-22T11:01:09;8.52;;;7.82;;
16450;SDS011;12243;42.708;23.310;2023-06-22T11:03:36;8.52;;;8.00;;
16450;SDS011;12243;42.708;23.310;2023-06-22T11:06:03;7.97;;;7.47;;
16450;SDS011;12243;42.708;23.310;2023-06-22T11:08:30;8.57;;;8.07;;
16450;SDS011;12243;42.708;23.310;2023-06-22T11:10:56;8.75;;;8.05;;
16450;SDS011;12243;42.708;23.310;2023-06-22T11:13:25;8.38;;;7.78;;
16450;SDS011;12243;42.708;23.310;2023-06-22T11:15:52;8.75;;;8.05;;
16450;SDS011;12243;42.708;23.310;2023-06-22T11:18:19;8.60;;;8.00;;
16450;SDS011;12243;42.708;23.310;2023-06-22T11:20:48;7.93;;;7.45;;
16450;SDS011;12243;42.708;23.310;2023-06-22T11:23:15;8.25;;;7.65;;
16450;SDS011;12243;42.708;23.310;2023-06-22T11:25:42;8.75;;;8.15;;
16450;SDS011;12243;42.708;23.310;2023-06-22T11:28:09;8.75;;;8.10;;
16450;SDS011;12243;42.708;23.310;2023-06-22T11:30:37;8.07;;;7.57;;
16450;SDS011;12243;42.708;23.310;2023-06-22T11:33:04;8.45;;;7.75;;
16450;SDS011;12243;42.708;23.310;2023-06-22T11:35:31;8.15;;;7.43;;
16450;SDS011;12243;42.708;23.310;2023-06-22T11:37:58;8.10;;;7.53;;
16450;SDS011;12243;42.708;23.310;2023-06-22T11:40:25;8.27;;;7.68;;
16450;SDS011;12243;42.708;23.310;2023-06-22T11:42:52;8.25;;;7.65;;
16450;SDS011;12243;42.708;23.310;2023-06-22T11:45:19;7.78;;;7.28;;
16450;SDS011;12243;42.708;23.310;2023-06-22T11:47:48;8.50;;;7.70;;
16450;SDS011;12243;42.708;23.310;2023-06-22T11:50:15;8.30;;;7.70;;
16450;SDS011;12243;42.708;23.310;2023-06-22T11:52:42;8.05;;;7.45;;
16450;SDS011;12243;42.708;23.310;2023-06-22T11:55:09;8.18;;;7.38;;
16450;SDS011;12243;42.708;23.310;2023-06-22T11:57:36;7.55;;;7.05;;
16450;SDS011;12243;42.708;23.310;2023-06-22T12:00:04;7.68;;;7.18;;
16450;SDS011;12243;42.708;23.310;2023-06-22T12:02:41;7.65;;;7.15;;
16450;SDS011;12243;42.708;23.310;2023-06-22T12:05:09;7.55;;;7.05;;
16450;SDS011;12243;42.708;23.310;2023-06-22T12:07:37;8.65;;;7.97;;
16450;SDS011;12243;42.708;23.310;2023-06-22T12:10:04;8.30;;;7.60;;
16450;SDS011;12243;42.708;23.310;2023-06-22T12:12:32;8.27;;;7.57;;
16450;SDS011;12243;42.708;23.310;2023-06-22T12:14:59;8.25;;;7.65;;
16450;SDS011;12243;42.708;23.310;2023-06-22T12:17:28;9.35;;;8.38;;
16450;SDS011;12243;42.708;23.310;2023-06-22T12:19:55;9.75;;;8.73;;
16450;SDS011;12243;42.708;23.310;2023-06-22T12:22:26;8.90;;;8.20;;
16450;SDS011;12243;42.708;23.310;2023-06-22T12:24:53;9.13;;;8.32;;
16450;SDS011;12243;42.708;23.310;2023-06-22T12:27:23;9.07;;;8.38;;
16450;SDS011;12243;42.708;23.310;2023-06-22T12:29:50;9.13;;;8.23;;
16450;SDS011;12243;42.708;23.310;2023-06-22T12:32:16;8.68;;;8.07;;
16450;SDS011;12243;42.708;23.310;2023-06-22T12:34:43;9.50;;;8.48;;
16450;SDS011;12243;42.708;23.310;2023-06-22T12:37:11;9.00;;;8.10;;
16450;SDS011;12243;42.708;23.310;2023-06-22T12:39:43;14.30;;;11.18;;
16450;SDS011;12243;42.708;23.310;2023-06-22T12:42:10;9.77;;;8.77;;
16450;SDS011;12243;42.708;23.310;2023-06-22T12:44:37;12.20;;;10.15;;
16450;SDS011;12243;42.708;23.310;2023-06-22T12:47:06;9.07;;;8.18;;
16450;SDS011;12243;42.708;23.310;2023-06-22T12:49:33;7.20;;;6.53;;
16450;SDS011;12243;42.708;23.310;2023-06-22T12:52:01;7.47;;;6.55;;
16450;SDS011;12243;42.708;23.310;2023-06-22T12:54:28;6.10;;;5.60;;
16450;SDS011;12243;42.708;23.310;2023-06-22T12:56:56;6.00;;;5.55;;
16450;SDS011;12243;42.708;23.310;2023-06-22T12:59:23;11.85;;;7.28;;
16450;SDS011;12243;42.708;23.310;2023-06-22T13:01:50;8.48;;;6.03;;
16450;SDS011;12243;42.708;23.310;2023-06-22T13:04:17;8.40;;;5.88;;
16450;SDS011;12243;42.708;23.310;2023-06-22T13:06:44;6.40;;;5.70;;
16450;SDS011;12243;42.708;23.310;2023-06-22T13:09:14;7.30;;;6.22;;
16450;SDS011;12243;42.708;23.310;2023-06-22T13:11:42;6.22;;;5.63;;
16450;SDS011;12243;42.708;23.310;2023-06-22T13:14:10;8.13;;;6.38;;
16450;SDS011;12243;42.708;23.310;2023-06-22T13:16:37;5.93;;;5.53;;
16450;SDS011;12243;42.708;23.310;2023-06-22T13:19:04;8.02;;;6.03;;
16450;SDS011;12243;42.708;23.310;2023-06-22T13:21:31;8.02;;;5.93;;
16450;SDS011;12243;42.708;23.310;2023-06-22T13:23:59;8.25;;;6.00;;
16450;SDS011;12243;42.708;23.310;2023-06-22T13:26:26;11.60;;;6.70;;
16450;SDS011;12243;42.708;23.310;2023-06-22T13:28:54;7.00;;;6.30;;
16450;SDS011;12243;42.708;23.310;2023-06-22T13:31:23;7.53;;;6.82;;
16450;SDS011;12243;42.708;23.310;2023-06-22T13:33:50;8.05;;;7.35;;
16450;SDS011;12243;42.708;23.310;2023-06-22T13:36:17;10.60;;;7.93;;
16450;SDS011;12243;42.708;23.310;2023-06-22T13:38:45;8.88;;;7.97;;
16450;SDS011;12243;42.708;23.310;2023-06-22T13:41:12;10.45;;;9.35;;
16450;SDS011;12243;42.708;23.310;2023-06-22T13:43:41;10.77;;;8.30;;
16450;SDS011;12243;42.708;23.310;2023-06-22T13:46:09;10.50;;;8.38;;
16450;SDS011;12243;42.708;23.310;2023-06-22T13:48:38;10.15;;;7.47;;
16450;SDS011;12243;42.708;23.310;2023-06-22T13:51:05;9.85;;;8.35;;
16450;SDS011;12243;42.708;23.310;2023-06-22T13:53:32;9.70;;;8.07;;
16450;SDS011;12243;42.708;23.310;2023-06-22T13:55:59;8.77;;;7.70;;
16450;SDS011;12243;42.708;23.310;2023-06-22T13:58:26;8.13;;;7.28;;
16450;SDS011;12243;42.708;23.310;2023-06-22T14:00:53;7.97;;;7.18;;
16450;SDS011;12243;42.708;23.310;2023-06-22T14:03:19;8.50;;;7.65;;
16450;SDS011;12243;42.708;23.310;2023-06-22T14:05:48;8.35;;;7.20;;
16450;SDS011;12243;42.708;23.310;2023-06-22T14:08:15;8.20;;;7.40;;
16450;SDS011;12243;42.708;23.310;2023-06-22T14:10:42;7.85;;;7.05;;
16450;SDS011;12243;42.708;23.310;2023-06-22T14:13:08;8.07;;;6.65;;
16450;SDS011;12243;42.708;23.310;2023-06-22T14:15:35;8.98;;;7.88;;
16450;SDS011;12243;42.708;23.310;2023-06-22T14:18:02;8.70;;;7.10;;
16450;SDS011;12243;42.708;23.310;2023-06-22T14:20:29;7.93;;;7.18;;
16450;SDS011;12243;42.708;23.310;2023-06-22T14:22:58;7.78;;;7.07;;
16450;SDS011;12243;42.708;23.310;2023-06-22T14:25:25;10.57;;;7.57;;
16450;SDS011;12243;42.708;23.310;2023-06-22T14:27:51;8.13;;;7.32;;
16450;SDS011;12243;42.708;23.310;2023-06-22T14:30:18;8.02;;;7.22;;
16450;SDS011;12243;42.708;23.310;2023-06-22T14:32:45;8.90;;;8.00;;
16450;SDS011;12243;42.708;23.310;2023-06-22T14:35:12;10.52;;;7.35;;